sensor_id;sensor_type;location;lat;lon;timestamp;P1;durP1;ratioP1;P2;durP2;ratioP2
15708;SDS011;7954;51.914;8.420;2023-07-22T00:02:05;12.73;;;11.43;;
15708;SDS011;7954;51.914;8.420;2023-07-22T00:04:33;13.90;;;11.10;;
15708;SDS011;7954;51.914;8.420;2023-07-22T00:07:01;14.13;;;11.30;;
15708;SDS011;7954;51.914;8.420;2023-07-22T00:09:30;15.13;;;11.90;;
15708;SDS011;7954;51.914;8.420;2023-07-22T00:12:01;13.73;;;10.87;;
15708;SDS011;7954;51.914;8.420;2023-07-22T00:14:31;14.17;;;11.07;;
15708;SDS011;7954;51.914;8.420;2023-07-22T00:16:59;14.17;;;12.00;;
15708;SDS011;7954;51.914;8.420;2023-07-22T00:19:27;12.73;;;10.50;;
15708;SDS011;7954;51.914;8.420;2023-07-22T00:21:55;13.40;;;10.87;;
15708;SDS011;7954;51.914;8.420;2023-07-22T00:24:22;14.10;;;11.10;;
15708;SDS011;7954;51.914;8.420;2023-07-22T00:26:51;11.53;;;9.83;;
15708;SDS011;7954;51.914;8.420;2023-07-22T00:29:19;12.27;;;10.63;;
15708;SDS011;7954;51.914;8.420;2023-07-22T00:31:48;12.37;;;9.70;;
15708;SDS011;7954;51.914;8.420;2023-07-22T00:34:16;12.47;;;9.37;;
15708;SDS011;7954;51.914;8.420;2023-07-22T00:36:44;11.63;;;9.73;;
15708;SDS011;7954;51.914;8.420;2023-07-22T00:39:13;12.80;;;9.97;;
15708;SDS011;7954;51.914;8.420;2023-07-22T00:41:42;12.57;;;10.43;;
15708;SDS011;7954;51.914;8.420;2023-07-22T00:44:11;12.03;;;10.63;;
15708;SDS011;7954;51.914;8.420;2023-07-22T00:46:39;12.40;;;10.60;;
15708;SDS011;7954;51.914;8.420;2023-07-22T00:49:08;14.10;;;10.70;;
15708;SDS011;7954;51.914;8.420;2023-07-22T00:51:37;14.23;;;11.20;;
15708;SDS011;7954;51.914;8.420;2023-07-22T00:54:06;13.47;;;11.13;;
15708;SDS011;7954;51.914;8.420;2023-07-22T00:56:35;13.53;;;11.20;;
15708;SDS011;7954;51.914;8.420;2023-07-22T00:59:04;14.87;;;11.70;;
15708;SDS011;7954;51.914;8.420;2023-07-22T01:01:32;13.07;;;10.77;;
15708;SDS011;7954;51.914;8.420;2023-07-22T01:04:00;11.17;;;10.00;;
15708;SDS011;7954;51.914;8.420;2023-07-22T01:06:32;13.23;;;10.53;;
15708;SDS011;7954;51.914;8.420;2023-07-22T01:09:02;15.77;;;12.10;;
15708;SDS011;7954;51.914;8.420;2023-07-22T01:11:35;16.13;;;12.10;;
15708;SDS011;7954;51.914;8.420;2023-07-22T01:14:03;14.30;;;11.10;;
15708;SDS011;7954;51.914;8.420;2023-07-22T01:16:31;15.30;;;11.77;;
15708;SDS011;7954;51.914;8.420;2023-07-22T01:18:59;12.27;;;10.97;;
15708;SDS011;7954;51.914;8.420;2023-07-22T01:21:27;13.70;;;11.27;;
15708;SDS011;7954;51.914;8.420;2023-07-22T01:23:58;14.27;;;11.70;;
15708;SDS011;7954;51.914;8.420;2023-07-22T01:26:26;14.40;;;11.63;;
15708;SDS011;7954;51.914;8.420;2023-07-22T01:29:01;15.80;;;11.60;;
15708;SDS011;7954;51.914;8.420;2023-07-22T01:31:30;12.57;;;11.13;;
15708;SDS011;7954;51.914;8.420;2023-07-22T01:33:58;15.23;;;11.40;;
15708;SDS011;7954;51.914;8.420;2023-07-22T01:36:26;14.50;;;12.37;;
15708;SDS011;7954;51.914;8.420;2023-07-22T01:38:55;14.27;;;11.43;;
15708;SDS011;7954;51.914;8.420;2023-07-22T01:41:25;14.53;;;11.90;;
15708;SDS011;7954;51.914;8.420;2023-07-22T01:43:53;12.83;;;10.60;;
15708;SDS011;7954;51.914;8.420;2023-07-22T01:46:21;14.37;;;11.83;;
15708;SDS011;7954;51.914;8.420;2023-07-22T01:48:50;14.00;;;11.60;;
15708;SDS011;7954;51.914;8.420;2023-07-22T01:51:18;14.53;;;11.63;;
15708;SDS011;7954;51.914;8.420;2023-07-22T01:53:45;12.63;;;11.13;;
15708;SDS011;7954;51.914;8.420;2023-07-22T01:56:14;14.43;;;12.23;;
15708;SDS011;7954;51.914;8.420;2023-07-22T01:58:44;12.17;;;10.40;;
15708;SDS011;7954;51.914;8.420;2023-07-22T02:01:12;14.70;;;11.13;;
15708;SDS011;7954;51.914;8.420;2023-07-22T02:03:42;12.23;;;10.90;;
15708;SDS011;7954;51.914;8.420;2023-07-22T02:06:11;12.40;;;10.87;;
15708;SDS011;7954;51.914;8.420;2023-07-22T02:08:40;12.83;;;10.87;;
15708;SDS011;7954;51.914;8.420;2023-07-22T02:11:08;11.77;;;10.57;;
15708;SDS011;7954;51.914;8.420;2023-07-22T02:13:36;12.63;;;10.13;;
15708;SDS011;7954;51.914;8.420;2023-07-22T02:16:06;13.27;;;10.83;;
15708;SDS011;7954;51.914;8.420;2023-07-22T02:18:38;12.77;;;10.77;;
15708;SDS011;7954;51.914;8.420;2023-07-22T02:21:06;12.77;;;10.63;;
15708;SDS011;7954;51.914;8.420;2023-07-22T02:23:35;11.97;;;10.63;;
15708;SDS011;7954;51.914;8.420;2023-07-22T02:26:04;13.60;;;11.13;;
15708;SDS011;7954;51.914;8.420;2023-07-22T02:28:32;11.97;;;10.30;;
15708;SDS011;7954;51.914;8.420;2023-07-22T02:31:01;14.43;;;10.70;;
15708;SDS011;7954;51.914;8.420;2023-07-22T02:33:33;14.70;;;11.77;;
15708;SDS011;7954;51.914;8.420;2023-07-22T02:36:01;12.03;;;10.77;;
15708;SDS011;7954;51.914;8.420;2023-07-22T02:38:29;14.83;;;11.50;;
15708;SDS011;7954;51.914;8.420;2023-07-22T02:41:01;14.70;;;11.33;;
15708;SDS011;7954;51.914;8.420;2023-07-22T02:43:29;15.10;;;11.93;;
15708;SDS011;7954;51.914;8.420;2023-07-22T02:45:59;11.97;;;10.77;;
15708;SDS011;7954;51.914;8.420;2023-07-22T02:48:27;13.03;;;10.90;;
15708;SDS011;7954;51.914;8.420;2023-07-22T02:51:01;13.50;;;12.10;;
15708;SDS011;7954;51.914;8.420;2023-07-22T02:53:29;13.60;;;11.80;;
15708;SDS011;7954;51.914;8.420;2023-07-22T02:55:57;13.83;;;11.83;;
15708;SDS011;7954;51.914;8.420;2023-07-22T02:58:26;15.07;;;12.10;;
15708;SDS011;7954;51.914;8.420;2023-07-22T03:00:54;15.47;;;12.53;;
15708;SDS011;7954;51.914;8.420;2023-07-22T03:03:24;14.80;;;12.40;;
15708;SDS011;7954;51.914;8.420;2023-07-22T03:05:52;15.70;;;12.33;;
15708;SDS011;7954;51.914;8.420;2023-07-22T03:08:21;13.17;;;11.63;;
15708;SDS011;7954;51.914;8.420;2023-07-22T03:10:49;13.67;;;11.20;;
15708;SDS011;7954;51.914;8.420;2023-07-22T03:13:18;16.50;;;13.27;;
15708;SDS011;7954;51.914;8.420;2023-07-22T03:15:45;23.73;;;13.20;;
15708;SDS011;7954;51.914;8.420;2023-07-22T03:18:13;16.10;;;12.63;;
15708;SDS011;7954;51.914;8.420;2023-07-22T03:20:42;13.77;;;12.20;;
15708;SDS011;7954;51.914;8.420;2023-07-22T03:23:10;17.20;;;13.10;;
15708;SDS011;7954;51.914;8.420;2023-07-22T03:25:40;15.13;;;12.53;;
15708;SDS011;7954;51.914;8.420;2023-07-22T03:28:10;14.80;;;12.10;;
15708;SDS011;7954;51.914;8.420;2023-07-22T03:30:38;14.77;;;12.50;;
15708;SDS011;7954;51.914;8.420;2023-07-22T03:33:06;19.63;;;13.63;;
15708;SDS011;7954;51.914;8.420;2023-07-22T03:35:35;13.93;;;12.47;;
15708;SDS011;7954;51.914;8.420;2023-07-22T03:38:03;15.93;;;12.00;;
15708;SDS011;7954;51.914;8.420;2023-07-22T03:40:31;14.43;;;12.47;;
15708;SDS011;7954;51.914;8.420;2023-07-22T03:43:01;12.63;;;11.33;;
15708;SDS011;7954;51.914;8.420;2023-07-22T03:45:29;13.87;;;12.37;;
15708;SDS011;7954;51.914;8.420;2023-07-22T03:47:58;13.43;;;11.53;;
15708;SDS011;7954;51.914;8.420;2023-07-22T03:50:27;14.67;;;11.80;;
15708;SDS011;7954;51.914;8.420;2023-07-22T03:52:56;16.90;;;12.73;;
15708;SDS011;7954;51.914;8.420;2023-07-22T03:55:23;13.90;;;11.60;;
15708;SDS011;7954;51.914;8.420;2023-07-22T03:57:51;13.33;;;11.83;;
15708;SDS011;7954;51.914;8.420;2023-07-22T04:00:21;13.17;;;11.37;;
15708;SDS011;7954;51.914;8.420;2023-07-22T04:02:50;13.17;;;11.77;;
15708;SDS011;7954;51.914;8.420;2023-07-22T04:05:18;12.73;;;11.33;;
15708;SDS011;7954;51.914;8.420;2023-07-22T04:07:47;17.53;;;12.10;;
15708;SDS011;7954;51.914;8.420;2023-07-22T04:10:15;14.73;;;11.47;;
15708;SDS011;7954;51.914;8.420;2023-07-22T04:12:43;13.03;;;11.40;;
15708;SDS011;7954;51.914;8.420;2023-07-22T04:15:13;13.03;;;11.30;;
15708;SDS011;7954;51.914;8.420;2023-07-22T04:17:43;12.23;;;10.73;;
15708;SDS011;7954;51.914;8.420;2023-07-22T04:20:11;13.33;;;11.30;;
15708;SDS011;7954;51.914;8.420;2023-07-22T04:22:39;12.50;;;11.20;;
15708;SDS011;7954;51.914;8.420;2023-07-22T04:25:07;12.87;;;10.43;;
15708;SDS011;7954;51.914;8.420;2023-07-22T04:27:36;15.47;;;11.27;;
15708;SDS011;7954;51.914;8.420;2023-07-22T04:30:04;14.50;;;11.17;;
15708;SDS011;7954;51.914;8.420;2023-07-22T04:32:32;12.97;;;11.47;;
15708;SDS011;7954;51.914;8.420;2023-07-22T04:35:02;12.73;;;10.83;;
15708;SDS011;7954;51.914;8.420;2023-07-22T04:37:31;11.67;;;10.57;;
15708;SDS011;7954;51.914;8.420;2023-07-22T04:40:00;11.97;;;10.70;;
15708;SDS011;7954;51.914;8.420;2023-07-22T04:42:32;12.07;;;10.77;;
15708;SDS011;7954;51.914;8.420;2023-07-22T04:45:00;12.50;;;10.20;;
15708;SDS011;7954;51.914;8.420;2023-07-22T04:47:29;13.07;;;10.00;;
15708;SDS011;7954;51.914;8.420;2023-07-22T04:49:57;13.07;;;10.50;;
15708;SDS011;7954;51.914;8.420;2023-07-22T04:52:27;14.47;;;11.60;;
15708;SDS011;7954;51.914;8.420;2023-07-22T04:54:55;11.27;;;10.17;;
15708;SDS011;7954;51.914;8.420;2023-07-22T04:57:23;11.93;;;10.53;;
15708;SDS011;7954;51.914;8.420;2023-07-22T04:59:50;11.63;;;9.93;;
15708;SDS011;7954;51.914;8.420;2023-07-22T05:02:19;13.43;;;10.57;;
15708;SDS011;7954;51.914;8.420;2023-07-22T05:04:47;13.10;;;10.17;;
15708;SDS011;7954;51.914;8.420;2023-07-22T05:07:15;10.83;;;9.57;;
15708;SDS011;7954;51.914;8.420;2023-07-22T05:09:45;11.43;;;10.23;;
15708;SDS011;7954;51.914;8.420;2023-07-22T05:12:13;10.40;;;9.30;;
15708;SDS011;7954;51.914;8.420;2023-07-22T05:14:41;11.83;;;9.37;;
15708;SDS011;7954;51.914;8.420;2023-07-22T05:17:09;12.80;;;9.97;;
15708;SDS011;7954;51.914;8.420;2023-07-22T05:19:37;10.73;;;9.70;;
15708;SDS011;7954;51.914;8.420;2023-07-22T05:22:06;10.67;;;9.57;;
15708;SDS011;7954;51.914;8.420;2023-07-22T05:24:34;10.83;;;9.73;;
15708;SDS011;7954;51.914;8.420;2023-07-22T05:27:04;11.00;;;9.87;;
15708;SDS011;7954;51.914;8.420;2023-07-22T05:29:35;11.53;;;9.63;;
15708;SDS011;7954;51.914;8.420;2023-07-22T05:32:03;10.57;;;9.37;;
15708;SDS011;7954;51.914;8.420;2023-07-22T05:34:42;12.07;;;9.90;;
15708;SDS011;7954;51.914;8.420;2023-07-22T05:37:10;10.33;;;9.33;;
15708;SDS011;7954;51.914;8.420;2023-07-22T05:39:38;12.37;;;9.50;;
15708;SDS011;7954;51.914;8.420;2023-07-22T05:42:07;12.80;;;9.27;;
15708;SDS011;7954;51.914;8.420;2023-07-22T05:44:35;10.83;;;9.73;;
15708;SDS011;7954;51.914;8.420;2023-07-22T05:47:04;12.00;;;10.07;;
15708;SDS011;7954;51.914;8.420;2023-07-22T05:49:33;10.57;;;9.43;;
15708;SDS011;7954;51.914;8.420;2023-07-22T05:52:01;10.57;;;9.60;;
15708;SDS011;7954;51.914;8.420;2023-07-22T05:54:29;10.30;;;9.30;;
15708;SDS011;7954;51.914;8.420;2023-07-22T05:56:57;10.13;;;9.13;;
15708;SDS011;7954;51.914;8.420;2023-07-22T05:59:27;10.17;;;9.17;;
15708;SDS011;7954;51.914;8.420;2023-07-22T06:01:54;10.90;;;9.20;;
15708;SDS011;7954;51.914;8.420;2023-07-22T06:04:24;10.77;;;9.43;;
15708;SDS011;7954;51.914;8.420;2023-07-22T06:06:52;9.70;;;8.80;;
15708;SDS011;7954;51.914;8.420;2023-07-22T06:09:20;10.53;;;9.43;;
15708;SDS011;7954;51.914;8.420;2023-07-22T06:11:48;9.77;;;8.77;;
15708;SDS011;7954;51.914;8.420;2023-07-22T06:14:18;10.10;;;8.77;;
15708;SDS011;7954;51.914;8.420;2023-07-22T06:16:47;9.87;;;8.80;;
15708;SDS011;7954;51.914;8.420;2023-07-22T06:19:15;9.80;;;8.87;;
15708;SDS011;7954;51.914;8.420;2023-07-22T06:21:47;10.00;;;9.00;;
15708;SDS011;7954;51.914;8.420;2023-07-22T06:24:15;8.90;;;8.07;;
15708;SDS011;7954;51.914;8.420;2023-07-22T06:26:43;9.63;;;8.67;;
15708;SDS011;7954;51.914;8.420;2023-07-22T06:29:11;8.47;;;7.67;;
15708;SDS011;7954;51.914;8.420;2023-07-22T06:31:39;9.20;;;8.23;;
15708;SDS011;7954;51.914;8.420;2023-07-22T06:34:09;8.33;;;7.60;;
15708;SDS011;7954;51.914;8.420;2023-07-22T06:36:37;8.67;;;7.70;;
15708;SDS011;7954;51.914;8.420;2023-07-22T06:39:04;7.83;;;7.13;;
15708;SDS011;7954;51.914;8.420;2023-07-22T06:41:32;8.67;;;7.87;;
15708;SDS011;7954;51.914;8.420;2023-07-22T06:44:00;8.33;;;7.63;;
15708;SDS011;7954;51.914;8.420;2023-07-22T06:46:28;8.37;;;7.57;;
15708;SDS011;7954;51.914;8.420;2023-07-22T06:48:57;8.77;;;8.00;;
15708;SDS011;7954;51.914;8.420;2023-07-22T06:51:26;8.10;;;7.30;;
15708;SDS011;7954;51.914;8.420;2023-07-22T06:53:54;8.33;;;7.57;;
15708;SDS011;7954;51.914;8.420;2023-07-22T06:56:22;8.50;;;7.70;;
15708;SDS011;7954;51.914;8.420;2023-07-22T06:58:52;7.60;;;6.90;;
15708;SDS011;7954;51.914;8.420;2023-07-22T07:01:20;8.40;;;7.70;;
15708;SDS011;7954;51.914;8.420;2023-07-22T07:03:48;8.27;;;7.47;;
15708;SDS011;7954;51.914;8.420;2023-07-22T07:06:16;7.83;;;7.13;;
15708;SDS011;7954;51.914;8.420;2023-07-22T07:08:45;7.57;;;6.90;;
15708;SDS011;7954;51.914;8.420;2023-07-22T07:11:15;7.93;;;7.23;;
15708;SDS011;7954;51.914;8.420;2023-07-22T07:13:43;8.80;;;8.00;;
15708;SDS011;7954;51.914;8.420;2023-07-22T07:16:21;8.30;;;7.47;;
15708;SDS011;7954;51.914;8.420;2023-07-22T07:18:51;8.20;;;7.23;;
15708;SDS011;7954;51.914;8.420;2023-07-22T07:21:21;8.17;;;7.43;;
15708;SDS011;7954;51.914;8.420;2023-07-22T07:23:51;7.57;;;6.97;;
15708;SDS011;7954;51.914;8.420;2023-07-22T07:26:21;8.27;;;7.03;;
15708;SDS011;7954;51.914;8.420;2023-07-22T07:28:52;7.50;;;6.73;;
15708;SDS011;7954;51.914;8.420;2023-07-22T07:31:20;7.70;;;7.00;;
15708;SDS011;7954;51.914;8.420;2023-07-22T07:33:48;7.47;;;6.73;;
15708;SDS011;7954;51.914;8.420;2023-07-22T07:36:17;7.30;;;6.70;;
15708;SDS011;7954;51.914;8.420;2023-07-22T07:38:44;6.93;;;6.33;;
15708;SDS011;7954;51.914;8.420;2023-07-22T07:41:14;7.60;;;6.90;;
15708;SDS011;7954;51.914;8.420;2023-07-22T07:43:42;7.13;;;6.50;;
15708;SDS011;7954;51.914;8.420;2023-07-22T07:46:14;7.60;;;6.90;;
15708;SDS011;7954;51.914;8.420;2023-07-22T07:48:45;7.03;;;6.43;;
15708;SDS011;7954;51.914;8.420;2023-07-22T07:51:13;7.23;;;6.40;;
15708;SDS011;7954;51.914;8.420;2023-07-22T07:53:43;7.00;;;6.30;;
15708;SDS011;7954;51.914;8.420;2023-07-22T07:56:11;7.07;;;6.43;;
15708;SDS011;7954;51.914;8.420;2023-07-22T07:58:41;7.60;;;6.90;;
15708;SDS011;7954;51.914;8.420;2023-07-22T08:01:09;7.53;;;6.80;;
15708;SDS011;7954;51.914;8.420;2023-07-22T08:03:38;7.47;;;6.57;;
15708;SDS011;7954;51.914;8.420;2023-07-22T08:06:06;7.60;;;6.90;;
15708;SDS011;7954;51.914;8.420;2023-07-22T08:08:35;7.63;;;6.93;;
15708;SDS011;7954;51.914;8.420;2023-07-22T08:11:04;7.93;;;7.17;;
15708;SDS011;7954;51.914;8.420;2023-07-22T08:13:34;7.23;;;6.53;;
15708;SDS011;7954;51.914;8.420;2023-07-22T08:16:04;8.23;;;7.43;;
15708;SDS011;7954;51.914;8.420;2023-07-22T08:18:33;8.43;;;7.67;;
15708;SDS011;7954;51.914;8.420;2023-07-22T08:21:02;8.50;;;7.63;;
15708;SDS011;7954;51.914;8.420;2023-07-22T08:23:33;8.80;;;8.00;;
15708;SDS011;7954;51.914;8.420;2023-07-22T08:26:01;10.13;;;9.13;;
15708;SDS011;7954;51.914;8.420;2023-07-22T08:28:31;7.83;;;7.13;;
15708;SDS011;7954;51.914;8.420;2023-07-22T08:30:59;9.57;;;8.67;;
15708;SDS011;7954;51.914;8.420;2023-07-22T08:33:30;9.77;;;8.87;;
15708;SDS011;7954;51.914;8.420;2023-07-22T08:36:01;9.17;;;8.37;;
15708;SDS011;7954;51.914;8.420;2023-07-22T08:38:29;9.60;;;8.00;;
15708;SDS011;7954;51.914;8.420;2023-07-22T08:40:58;9.07;;;8.17;;
15708;SDS011;7954;51.914;8.420;2023-07-22T08:43:27;8.97;;;8.17;;
15708;SDS011;7954;51.914;8.420;2023-07-22T08:45:58;9.43;;;8.47;;
15708;SDS011;7954;51.914;8.420;2023-07-22T08:48:31;8.37;;;7.63;;
15708;SDS011;7954;51.914;8.420;2023-07-22T08:51:02;9.13;;;7.93;;
15708;SDS011;7954;51.914;8.420;2023-07-22T08:53:31;8.80;;;7.93;;
15708;SDS011;7954;51.914;8.420;2023-07-22T08:56:00;8.33;;;7.53;;
15708;SDS011;7954;51.914;8.420;2023-07-22T08:58:28;8.07;;;7.47;;
15708;SDS011;7954;51.914;8.420;2023-07-22T09:00:57;8.60;;;7.80;;
15708;SDS011;7954;51.914;8.420;2023-07-22T09:03:26;9.03;;;7.80;;
15708;SDS011;7954;51.914;8.420;2023-07-22T09:05:57;9.00;;;8.07;;
15708;SDS011;7954;51.914;8.420;2023-07-22T09:08:26;8.67;;;7.93;;
15708;SDS011;7954;51.914;8.420;2023-07-22T09:10:54;8.10;;;7.37;;
15708;SDS011;7954;51.914;8.420;2023-07-22T09:13:26;7.70;;;7.03;;
15708;SDS011;7954;51.914;8.420;2023-07-22T09:15:54;7.90;;;7.10;;
15708;SDS011;7954;51.914;8.420;2023-07-22T09:18:24;7.37;;;6.40;;
15708;SDS011;7954;51.914;8.420;2023-07-22T09:20:52;6.93;;;6.33;;
15708;SDS011;7954;51.914;8.420;2023-07-22T09:23:32;7.27;;;6.10;;
15708;SDS011;7954;51.914;8.420;2023-07-22T09:26:10;6.50;;;6.00;;
15708;SDS011;7954;51.914;8.420;2023-07-22T09:28:51;7.20;;;5.30;;
15708;SDS011;7954;51.914;8.420;2023-07-22T09:31:21;6.77;;;6.17;;
15708;SDS011;7954;51.914;8.420;2023-07-22T09:33:50;6.13;;;5.63;;
15708;SDS011;7954;51.914;8.420;2023-07-22T09:36:20;8.80;;;6.33;;
15708;SDS011;7954;51.914;8.420;2023-07-22T09:38:59;6.37;;;5.77;;
15708;SDS011;7954;51.914;8.420;2023-07-22T09:41:29;4.83;;;4.43;;
15708;SDS011;7954;51.914;8.420;2023-07-22T09:43:57;6.13;;;5.53;;
15708;SDS011;7954;51.914;8.420;2023-07-22T09:46:30;5.70;;;4.77;;
15708;SDS011;7954;51.914;8.420;2023-07-22T09:49:02;6.33;;;5.73;;
15708;SDS011;7954;51.914;8.420;2023-07-22T09:51:33;5.93;;;5.43;;
15708;SDS011;7954;51.914;8.420;2023-07-22T09:54:15;5.33;;;4.90;;
15708;SDS011;7954;51.914;8.420;2023-07-22T09:56:44;5.57;;;5.07;;
15708;SDS011;7954;51.914;8.420;2023-07-22T09:59:13;5.77;;;5.27;;
15708;SDS011;7954;51.914;8.420;2023-07-22T10:01:41;5.47;;;4.97;;
15708;SDS011;7954;51.914;8.420;2023-07-22T10:04:14;5.63;;;5.13;;
15708;SDS011;7954;51.914;8.420;2023-07-22T10:06:43;5.03;;;4.53;;
15708;SDS011;7954;51.914;8.420;2023-07-22T10:09:12;5.57;;;5.17;;
15708;SDS011;7954;51.914;8.420;2023-07-22T10:11:42;6.90;;;6.30;;
15708;SDS011;7954;51.914;8.420;2023-07-22T10:14:11;6.70;;;6.10;;
15708;SDS011;7954;51.914;8.420;2023-07-22T10:16:40;6.47;;;5.87;;
15708;SDS011;7954;51.914;8.420;2023-07-22T10:19:09;7.03;;;5.70;;
15708;SDS011;7954;51.914;8.420;2023-07-22T10:21:38;5.67;;;5.17;;
15708;SDS011;7954;51.914;8.420;2023-07-22T10:24:07;4.70;;;4.30;;
15708;SDS011;7954;51.914;8.420;2023-07-22T10:26:37;5.40;;;5.00;;
15708;SDS011;7954;51.914;8.420;2023-07-22T10:29:14;5.60;;;5.10;;
15708;SDS011;7954;51.914;8.420;2023-07-22T10:31:42;5.70;;;5.20;;
15708;SDS011;7954;51.914;8.420;2023-07-22T10:34:10;6.27;;;5.27;;
15708;SDS011;7954;51.914;8.420;2023-07-22T10:36:38;5.70;;;5.20;;
15708;SDS011;7954;51.914;8.420;2023-07-22T10:39:07;5.20;;;4.80;;
15708;SDS011;7954;51.914;8.420;2023-07-22T10:41:37;5.67;;;5.23;;
15708;SDS011;7954;51.914;8.420;2023-07-22T10:44:07;5.43;;;4.93;;
15708;SDS011;7954;51.914;8.420;2023-07-22T10:46:40;5.70;;;4.17;;
15708;SDS011;7954;51.914;8.420;2023-07-22T10:49:11;5.40;;;4.93;;
15708;SDS011;7954;51.914;8.420;2023-07-22T10:51:39;5.20;;;4.80;;
15708;SDS011;7954;51.914;8.420;2023-07-22T10:54:11;4.27;;;3.97;;
15708;SDS011;7954;51.914;8.420;2023-07-22T10:56:43;5.87;;;5.27;;
15708;SDS011;7954;51.914;8.420;2023-07-22T10:59:12;5.07;;;4.67;;
15708;SDS011;7954;51.914;8.420;2023-07-22T11:01:43;4.70;;;4.30;;
15708;SDS011;7954;51.914;8.420;2023-07-22T11:04:22;4.57;;;4.17;;
15708;SDS011;7954;51.914;8.420;2023-07-22T11:07:05;5.30;;;4.80;;
15708;SDS011;7954;51.914;8.420;2023-07-22T11:09:40;5.10;;;4.63;;
15708;SDS011;7954;51.914;8.420;2023-07-22T11:12:12;5.40;;;4.90;;
15708;SDS011;7954;51.914;8.420;2023-07-22T11:14:45;5.53;;;5.03;;
15708;SDS011;7954;51.914;8.420;2023-07-22T11:17:17;5.27;;;4.87;;
15708;SDS011;7954;51.914;8.420;2023-07-22T11:19:46;5.13;;;4.73;;
15708;SDS011;7954;51.914;8.420;2023-07-22T11:22:15;4.77;;;4.27;;
15708;SDS011;7954;51.914;8.420;2023-07-22T11:24:44;5.13;;;4.63;;
15708;SDS011;7954;51.914;8.420;2023-07-22T11:27:12;5.30;;;4.70;;
15708;SDS011;7954;51.914;8.420;2023-07-22T11:29:41;4.70;;;4.30;;
15708;SDS011;7954;51.914;8.420;2023-07-22T11:32:16;4.53;;;4.13;;
15708;SDS011;7954;51.914;8.420;2023-07-22T11:34:45;5.00;;;4.53;;
15708;SDS011;7954;51.914;8.420;2023-07-22T11:37:14;5.63;;;4.90;;
15708;SDS011;7954;51.914;8.420;2023-07-22T11:39:44;4.80;;;4.40;;
15708;SDS011;7954;51.914;8.420;2023-07-22T11:42:12;4.33;;;3.97;;
15708;SDS011;7954;51.914;8.420;2023-07-22T11:44:40;4.60;;;4.20;;
15708;SDS011;7954;51.914;8.420;2023-07-22T11:47:09;4.70;;;4.30;;
15708;SDS011;7954;51.914;8.420;2023-07-22T11:49:41;3.90;;;3.60;;
15708;SDS011;7954;51.914;8.420;2023-07-22T11:52:10;4.20;;;3.80;;
15708;SDS011;7954;51.914;8.420;2023-07-22T11:54:39;3.87;;;3.57;;
15708;SDS011;7954;51.914;8.420;2023-07-22T11:57:09;4.03;;;3.70;;
15708;SDS011;7954;51.914;8.420;2023-07-22T11:59:38;4.23;;;3.37;;
15708;SDS011;7954;51.914;8.420;2023-07-22T12:02:07;4.20;;;3.70;;
15708;SDS011;7954;51.914;8.420;2023-07-22T12:04:42;3.73;;;3.43;;
15708;SDS011;7954;51.914;8.420;2023-07-22T12:07:24;3.87;;;3.57;;
15708;SDS011;7954;51.914;8.420;2023-07-22T12:09:53;3.70;;;3.50;;
15708;SDS011;7954;51.914;8.420;2023-07-22T12:12:31;3.83;;;3.53;;
15708;SDS011;7954;51.914;8.420;2023-07-22T12:15:01;3.87;;;3.57;;
15708;SDS011;7954;51.914;8.420;2023-07-22T12:17:42;4.97;;;4.47;;
15708;SDS011;7954;51.914;8.420;2023-07-22T12:20:16;4.27;;;3.87;;
15708;SDS011;7954;51.914;8.420;2023-07-22T12:22:45;4.00;;;3.70;;
15708;SDS011;7954;51.914;8.420;2023-07-22T12:25:13;3.80;;;3.50;;
15708;SDS011;7954;51.914;8.420;2023-07-22T12:27:43;3.50;;;3.20;;
15708;SDS011;7954;51.914;8.420;2023-07-22T12:30:12;3.73;;;3.43;;
15708;SDS011;7954;51.914;8.420;2023-07-22T12:32:42;5.00;;;3.93;;
15708;SDS011;7954;51.914;8.420;2023-07-22T12:35:10;4.97;;;4.27;;
15708;SDS011;7954;51.914;8.420;2023-07-22T12:37:41;4.40;;;4.00;;
15708;SDS011;7954;51.914;8.420;2023-07-22T12:40:10;4.07;;;3.77;;
15708;SDS011;7954;51.914;8.420;2023-07-22T12:42:39;4.00;;;3.70;;
15708;SDS011;7954;51.914;8.420;2023-07-22T12:45:08;5.10;;;3.90;;
15708;SDS011;7954;51.914;8.420;2023-07-22T12:47:37;3.90;;;3.60;;
15708;SDS011;7954;51.914;8.420;2023-07-22T12:50:06;9.83;;;4.00;;
15708;SDS011;7954;51.914;8.420;2023-07-22T12:52:35;3.93;;;3.63;;
15708;SDS011;7954;51.914;8.420;2023-07-22T12:55:05;3.10;;;2.87;;
15708;SDS011;7954;51.914;8.420;2023-07-22T12:57:34;3.43;;;3.13;;
15708;SDS011;7954;51.914;8.420;2023-07-22T13:00:02;3.90;;;3.45;;
15708;SDS011;7954;51.914;8.420;2023-07-22T13:02:34;3.15;;;2.88;;
15708;SDS011;7954;51.914;8.420;2023-07-22T13:05:02;2.97;;;2.78;;
15708;SDS011;7954;51.914;8.420;2023-07-22T13:07:30;3.97;;;3.67;;
15708;SDS011;7954;51.914;8.420;2023-07-22T13:09:58;7.47;;;5.75;;
15708;SDS011;7954;51.914;8.420;2023-07-22T13:12:31;2.97;;;2.78;;
15708;SDS011;7954;51.914;8.420;2023-07-22T13:15:00;3.22;;;2.92;;
15708;SDS011;7954;51.914;8.420;2023-07-22T13:17:27;3.50;;;3.20;;
15708;SDS011;7954;51.914;8.420;2023-07-22T13:19:56;3.13;;;2.92;;
15708;SDS011;7954;51.914;8.420;2023-07-22T13:22:23;3.25;;;2.95;;
15708;SDS011;7954;51.914;8.420;2023-07-22T13:24:52;3.80;;;3.50;;
15708;SDS011;7954;51.914;8.420;2023-07-22T13:27:20;3.00;;;2.80;;
15708;SDS011;7954;51.914;8.420;2023-07-22T13:29:49;4.10;;;2.85;;
15708;SDS011;7954;51.914;8.420;2023-07-22T13:32:17;3.53;;;3.22;;
15708;SDS011;7954;51.914;8.420;2023-07-22T13:34:45;3.38;;;3.08;;
15708;SDS011;7954;51.914;8.420;2023-07-22T13:37:13;3.28;;;2.97;;
15708;SDS011;7954;51.914;8.420;2023-07-22T13:39:41;4.27;;;3.13;;
15708;SDS011;7954;51.914;8.420;2023-07-22T13:42:09;4.53;;;3.30;;
15708;SDS011;7954;51.914;8.420;2023-07-22T13:44:37;3.92;;;3.03;;
15708;SDS011;7954;51.914;8.420;2023-07-22T13:47:07;3.30;;;3.05;;
15708;SDS011;7954;51.914;8.420;2023-07-22T13:49:36;3.75;;;2.90;;
15708;SDS011;7954;51.914;8.420;2023-07-22T13:52:04;3.45;;;2.67;;
15708;SDS011;7954;51.914;8.420;2023-07-22T13:54:32;3.25;;;3.00;;
15708;SDS011;7954;51.914;8.420;2023-07-22T13:57:00;3.60;;;3.30;;
15708;SDS011;7954;51.914;8.420;2023-07-22T13:59:28;3.28;;;3.08;;
15708;SDS011;7954;51.914;8.420;2023-07-22T14:01:57;3.60;;;3.30;;
15708;SDS011;7954;51.914;8.420;2023-07-22T14:04:26;3.28;;;3.00;;
15708;SDS011;7954;51.914;8.420;2023-07-22T14:06:54;3.53;;;3.30;;
15708;SDS011;7954;51.914;8.420;2023-07-22T14:09:22;3.28;;;2.97;;
15708;SDS011;7954;51.914;8.420;2023-07-22T14:11:50;3.20;;;2.90;;
15708;SDS011;7954;51.914;8.420;2023-07-22T14:14:18;3.10;;;2.80;;
15708;SDS011;7954;51.914;8.420;2023-07-22T14:16:46;3.00;;;2.80;;
15708;SDS011;7954;51.914;8.420;2023-07-22T14:19:14;3.42;;;2.88;;
15708;SDS011;7954;51.914;8.420;2023-07-22T14:21:43;3.20;;;2.90;;
15708;SDS011;7954;51.914;8.420;2023-07-22T14:24:13;3.03;;;2.83;;
15708;SDS011;7954;51.914;8.420;2023-07-22T14:26:41;2.63;;;2.42;;
15708;SDS011;7954;51.914;8.420;2023-07-22T14:29:09;2.65;;;2.45;;
15708;SDS011;7954;51.914;8.420;2023-07-22T14:31:37;2.75;;;2.50;;
15708;SDS011;7954;51.914;8.420;2023-07-22T14:34:06;2.72;;;2.53;;
15708;SDS011;7954;51.914;8.420;2023-07-22T14:36:34;2.95;;;2.75;;
15708;SDS011;7954;51.914;8.420;2023-07-22T14:39:03;2.80;;;2.60;;
15708;SDS011;7954;51.914;8.420;2023-07-22T14:41:31;3.13;;;2.45;;
15708;SDS011;7954;51.914;8.420;2023-07-22T14:44:00;2.72;;;2.53;;
15708;SDS011;7954;51.914;8.420;2023-07-22T14:46:27;3.00;;;2.75;;
15708;SDS011;7954;51.914;8.420;2023-07-22T14:48:56;3.45;;;3.15;;
15708;SDS011;7954;51.914;8.420;2023-07-22T14:51:24;3.63;;;2.58;;
15708;SDS011;7954;51.914;8.420;2023-07-22T14:53:53;9.85;;;2.80;;
15708;SDS011;7954;51.914;8.420;2023-07-22T14:56:22;2.40;;;2.30;;
15708;SDS011;7954;51.914;8.420;2023-07-22T14:58:50;2.90;;;2.70;;
15708;SDS011;7954;51.914;8.420;2023-07-22T15:01:18;4.47;;;2.70;;
15708;SDS011;7954;51.914;8.420;2023-07-22T15:03:47;2.57;;;2.33;;